sensor_id;sensor_type;location;lat;lon;timestamp;P1;durP1;ratioP1;P2;durP2;ratioP2
71937;SDS011;59810;48.800;9.086;2023-02-01T00:01:59;7.45;;;2.28;;
71937;SDS011;59810;48.800;9.086;2023-02-01T00:04:26;5.57;;;1.80;;
71937;SDS011;59810;48.800;9.086;2023-02-01T00:06:51;5.27;;;1.70;;
71937;SDS011;59810;48.800;9.086;2023-02-01T00:09:17;5.03;;;1.40;;
71937;SDS011;59810;48.800;9.086;2023-02-01T00:11:45;6.05;;;1.80;;
71937;SDS011;59810;48.800;9.086;2023-02-01T00:14:10;4.00;;;1.60;;
71937;SDS011;59810;48.800;9.086;2023-02-01T00:16:36;5.85;;;1.63;;
71937;SDS011;59810;48.800;9.086;2023-02-01T00:21:31;5.45;;;1.48;;
71937;SDS011;59810;48.800;9.086;2023-02-01T00:23:57;4.95;;;1.73;;
71937;SDS011;59810;48.800;9.086;2023-02-01T00:26:34;5.10;;;1.60;;
71937;SDS011;59810;48.800;9.086;2023-02-01T00:29:02;6.40;;;1.65;;
71937;SDS011;59810;48.800;9.086;2023-02-01T00:31:29;6.88;;;1.40;;
71937;SDS011;59810;48.800;9.086;2023-02-01T00:33:55;5.17;;;1.60;;
71937;SDS011;59810;48.800;9.086;2023-02-01T00:36:20;4.57;;;1.52;;
71937;SDS011;59810;48.800;9.086;2023-02-01T00:38:48;5.80;;;1.60;;
71937;SDS011;59810;48.800;9.086;2023-02-01T00:41:19;5.13;;;1.53;;
71937;SDS011;59810;48.800;9.086;2023-02-01T00:43:47;4.47;;;1.40;;
71937;SDS011;59810;48.800;9.086;2023-02-01T00:46:13;5.15;;;1.55;;
71937;SDS011;59810;48.800;9.086;2023-02-01T00:48:40;4.75;;;1.35;;
71937;SDS011;59810;48.800;9.086;2023-02-01T00:51:15;4.60;;;1.30;;
71937;SDS011;59810;48.800;9.086;2023-02-01T00:53:43;4.50;;;1.50;;
71937;SDS011;59810;48.800;9.086;2023-02-01T00:56:09;4.65;;;1.42;;
71937;SDS011;59810;48.800;9.086;2023-02-01T00:58:35;5.47;;;1.75;;
71937;SDS011;59810;48.800;9.086;2023-02-01T01:01:17;4.60;;;1.20;;
71937;SDS011;59810;48.800;9.086;2023-02-01T01:03:51;4.05;;;1.30;;
71937;SDS011;59810;48.800;9.086;2023-02-01T01:06:21;5.10;;;1.15;;
71937;SDS011;59810;48.800;9.086;2023-02-01T01:08:52;4.00;;;1.20;;
71937;SDS011;59810;48.800;9.086;2023-02-01T01:11:19;4.17;;;1.33;;
71937;SDS011;59810;48.800;9.086;2023-02-01T01:13:48;4.50;;;1.23;;
71937;SDS011;59810;48.800;9.086;2023-02-01T01:16:15;4.18;;;1.40;;
71937;SDS011;59810;48.800;9.086;2023-02-01T01:18:41;4.47;;;1.38;;
71937;SDS011;59810;48.800;9.086;2023-02-01T01:21:07;4.90;;;1.37;;
71937;SDS011;59810;48.800;9.086;2023-02-01T01:23:34;4.68;;;1.15;;
71937;SDS011;59810;48.800;9.086;2023-02-01T01:26:00;6.07;;;1.67;;
71937;SDS011;59810;48.800;9.086;2023-02-01T01:28:30;3.25;;;0.98;;
71937;SDS011;59810;48.800;9.086;2023-02-01T01:30:55;4.63;;;1.20;;
71937;SDS011;59810;48.800;9.086;2023-02-01T01:33:21;4.03;;;1.30;;
71937;SDS011;59810;48.800;9.086;2023-02-01T01:35:46;4.03;;;1.00;;
71937;SDS011;59810;48.800;9.086;2023-02-01T01:38:11;3.23;;;0.97;;
71937;SDS011;59810;48.800;9.086;2023-02-01T01:40:37;2.83;;;0.90;;
71937;SDS011;59810;48.800;9.086;2023-02-01T01:43:15;2.80;;;1.20;;
71937;SDS011;59810;48.800;9.086;2023-02-01T01:45:42;3.40;;;0.93;;
71937;SDS011;59810;48.800;9.086;2023-02-01T01:48:15;3.53;;;0.82;;
71937;SDS011;59810;48.800;9.086;2023-02-01T01:51:17;3.83;;;1.00;;
71937;SDS011;59810;48.800;9.086;2023-02-01T01:53:44;4.13;;;0.80;;
71937;SDS011;59810;48.800;9.086;2023-02-01T01:56:17;4.13;;;1.20;;
71937;SDS011;59810;48.800;9.086;2023-02-01T01:58:47;5.15;;;1.20;;
71937;SDS011;59810;48.800;9.086;2023-02-01T02:01:15;3.35;;;0.63;;
71937;SDS011;59810;48.800;9.086;2023-02-01T02:03:42;3.45;;;1.00;;
71937;SDS011;59810;48.800;9.086;2023-02-01T02:06:15;4.10;;;0.97;;
71937;SDS011;59810;48.800;9.086;2023-02-01T02:08:49;2.90;;;0.63;;
71937;SDS011;59810;48.800;9.086;2023-02-01T02:11:16;3.70;;;0.90;;
71937;SDS011;59810;48.800;9.086;2023-02-01T02:13:42;2.25;;;0.75;;
71937;SDS011;59810;48.800;9.086;2023-02-01T02:16:24;3.47;;;1.00;;
71937;SDS011;59810;48.800;9.086;2023-02-01T02:36:05;3.88;;;1.13;;
71937;SDS011;59810;48.800;9.086;2023-02-01T02:38:58;4.07;;;1.07;;
71937;SDS011;59810;48.800;9.086;2023-02-01T02:41:47;4.10;;;0.95;;
71937;SDS011;59810;48.800;9.086;2023-02-01T02:44:57;4.35;;;1.48;;
71937;SDS011;59810;48.800;9.086;2023-02-01T02:50:34;4.53;;;1.00;;
71937;SDS011;59810;48.800;9.086;2023-02-01T02:53:34;4.97;;;1.30;;
71937;SDS011;59810;48.800;9.086;2023-02-01T02:56:23;5.20;;;1.20;;
71937;SDS011;59810;48.800;9.086;2023-02-01T02:59:11;3.17;;;1.00;;
71937;SDS011;59810;48.800;9.086;2023-02-01T03:01:58;4.47;;;1.48;;
71937;SDS011;59810;48.800;9.086;2023-02-01T03:04:42;4.10;;;1.10;;
71937;SDS011;59810;48.800;9.086;2023-02-01T03:07:11;4.73;;;1.40;;
71937;SDS011;59810;48.800;9.086;2023-02-01T03:09:37;4.53;;;1.35;;
71937;SDS011;59810;48.800;9.086;2023-02-01T03:12:12;4.50;;;1.30;;
71937;SDS011;59810;48.800;9.086;2023-02-01T03:15:00;4.28;;;1.25;;
71937;SDS011;59810;48.800;9.086;2023-02-01T03:17:35;4.30;;;1.27;;
71937;SDS011;59810;48.800;9.086;2023-02-01T03:20:06;3.55;;;1.25;;
71937;SDS011;59810;48.800;9.086;2023-02-01T03:22:35;4.07;;;1.30;;
71937;SDS011;59810;48.800;9.086;2023-02-01T03:25:13;3.90;;;1.00;;
71937;SDS011;59810;48.800;9.086;2023-02-01T03:27:47;4.25;;;1.08;;
71937;SDS011;59810;48.800;9.086;2023-02-01T03:30:23;5.35;;;1.17;;
71937;SDS011;59810;48.800;9.086;2023-02-01T03:32:58;4.75;;;1.40;;
71937;SDS011;59810;48.800;9.086;2023-02-01T03:43:35;4.20;;;1.13;;
71937;SDS011;59810;48.800;9.086;2023-02-01T03:48:36;3.97;;;1.33;;
71937;SDS011;59810;48.800;9.086;2023-02-01T03:51:03;5.43;;;1.33;;
71937;SDS011;59810;48.800;9.086;2023-02-01T03:53:31;3.67;;;1.30;;
71937;SDS011;59810;48.800;9.086;2023-02-01T03:56:01;2.97;;;0.83;;
71937;SDS011;59810;48.800;9.086;2023-02-01T03:58:27;3.47;;;1.02;;
71937;SDS011;59810;48.800;9.086;2023-02-01T04:00:53;4.80;;;1.17;;
71937;SDS011;59810;48.800;9.086;2023-02-01T04:03:27;3.33;;;0.90;;
71937;SDS011;59810;48.800;9.086;2023-02-01T04:05:53;4.63;;;1.17;;
71937;SDS011;59810;48.800;9.086;2023-02-01T04:08:20;5.18;;;1.42;;
71937;SDS011;59810;48.800;9.086;2023-02-01T04:10:48;3.70;;;1.20;;
71937;SDS011;59810;48.800;9.086;2023-02-01T04:13:16;6.43;;;1.40;;
71937;SDS011;59810;48.800;9.086;2023-02-01T04:15:43;4.05;;;1.20;;
71937;SDS011;59810;48.800;9.086;2023-02-01T04:18:11;3.70;;;1.07;;
71937;SDS011;59810;48.800;9.086;2023-02-01T04:20:36;4.50;;;1.20;;
71937;SDS011;59810;48.800;9.086;2023-02-01T04:23:02;4.47;;;1.30;;
71937;SDS011;59810;48.800;9.086;2023-02-01T04:25:27;3.17;;;1.00;;
71937;SDS011;59810;48.800;9.086;2023-02-01T04:27:53;4.18;;;1.10;;
71937;SDS011;59810;48.800;9.086;2023-02-01T04:30:21;4.43;;;1.10;;
71937;SDS011;59810;48.800;9.086;2023-02-01T04:32:48;3.72;;;1.20;;
71937;SDS011;59810;48.800;9.086;2023-02-01T04:35:14;3.67;;;1.10;;
71937;SDS011;59810;48.800;9.086;2023-02-01T04:37:39;3.50;;;1.00;;
71937;SDS011;59810;48.800;9.086;2023-02-01T04:40:07;5.90;;;1.50;;
71937;SDS011;59810;48.800;9.086;2023-02-01T04:42:33;3.53;;;0.90;;
71937;SDS011;59810;48.800;9.086;2023-02-01T04:44:58;3.80;;;1.00;;
71937;SDS011;59810;48.800;9.086;2023-02-01T04:47:28;3.38;;;1.05;;
71937;SDS011;59810;48.800;9.086;2023-02-01T04:49:56;6.13;;;1.25;;
71937;SDS011;59810;48.800;9.086;2023-02-01T04:52:22;3.13;;;0.90;;
71937;SDS011;59810;48.800;9.086;2023-02-01T04:54:47;4.17;;;1.03;;
71937;SDS011;59810;48.800;9.086;2023-02-01T04:57:12;3.10;;;0.90;;
71937;SDS011;59810;48.800;9.086;2023-02-01T04:59:39;4.57;;;0.80;;
71937;SDS011;59810;48.800;9.086;2023-02-01T05:02:07;4.45;;;0.95;;
71937;SDS011;59810;48.800;9.086;2023-02-01T05:04:32;2.95;;;0.80;;
71937;SDS011;59810;48.800;9.086;2023-02-01T05:06:58;4.17;;;0.90;;
71937;SDS011;59810;48.800;9.086;2023-02-01T05:09:23;3.93;;;1.00;;
71937;SDS011;59810;48.800;9.086;2023-02-01T05:11:48;4.33;;;0.90;;
71937;SDS011;59810;48.800;9.086;2023-02-01T05:14:32;3.22;;;0.90;;
71937;SDS011;59810;48.800;9.086;2023-02-01T05:16:57;4.53;;;1.07;;
71937;SDS011;59810;48.800;9.086;2023-02-01T05:19:22;4.80;;;1.07;;
71937;SDS011;59810;48.800;9.086;2023-02-01T05:21:48;3.57;;;0.90;;
71937;SDS011;59810;48.800;9.086;2023-02-01T05:24:13;3.67;;;0.90;;
71937;SDS011;59810;48.800;9.086;2023-02-01T05:26:41;2.83;;;0.77;;
71937;SDS011;59810;48.800;9.086;2023-02-01T05:29:08;3.30;;;0.98;;
71937;SDS011;59810;48.800;9.086;2023-02-01T05:31:40;4.10;;;1.10;;
71937;SDS011;59810;48.800;9.086;2023-02-01T05:34:05;3.33;;;1.07;;
71937;SDS011;59810;48.800;9.086;2023-02-01T05:36:34;4.07;;;1.00;;
71937;SDS011;59810;48.800;9.086;2023-02-01T05:38:59;3.97;;;1.03;;
71937;SDS011;59810;48.800;9.086;2023-02-01T05:41:24;3.27;;;1.03;;
71937;SDS011;59810;48.800;9.086;2023-02-01T05:43:50;4.18;;;1.10;;
71937;SDS011;59810;48.800;9.086;2023-02-01T05:46:15;3.50;;;0.97;;
71937;SDS011;59810;48.800;9.086;2023-02-01T05:48:41;4.33;;;0.93;;
71937;SDS011;59810;48.800;9.086;2023-02-01T05:51:07;5.80;;;0.82;;
71937;SDS011;59810;48.800;9.086;2023-02-01T05:53:33;4.10;;;0.80;;
71937;SDS011;59810;48.800;9.086;2023-02-01T05:55:58;3.83;;;1.20;;
71937;SDS011;59810;48.800;9.086;2023-02-01T05:58:24;4.07;;;0.80;;
71937;SDS011;59810;48.800;9.086;2023-02-01T06:00:51;3.53;;;1.10;;
71937;SDS011;59810;48.800;9.086;2023-02-01T06:03:19;6.00;;;1.00;;
71937;SDS011;59810;48.800;9.086;2023-02-01T06:05:44;5.13;;;1.10;;
71937;SDS011;59810;48.800;9.086;2023-02-01T06:08:13;4.18;;;0.90;;
71937;SDS011;59810;48.800;9.086;2023-02-01T06:10:39;3.47;;;0.90;;
71937;SDS011;59810;48.800;9.086;2023-02-01T06:13:04;4.10;;;1.13;;
71937;SDS011;59810;48.800;9.086;2023-02-01T06:15:30;5.07;;;0.90;;
71937;SDS011;59810;48.800;9.086;2023-02-01T06:17:56;3.42;;;0.80;;
71937;SDS011;59810;48.800;9.086;2023-02-01T06:20:21;2.83;;;0.80;;
71937;SDS011;59810;48.800;9.086;2023-02-01T06:22:47;3.23;;;1.23;;
71937;SDS011;59810;48.800;9.086;2023-02-01T06:25:12;7.27;;;2.00;;
71937;SDS011;59810;48.800;9.086;2023-02-01T06:27:37;8.27;;;1.70;;
71937;SDS011;59810;48.800;9.086;2023-02-01T06:30:03;5.10;;;1.80;;
71937;SDS011;59810;48.800;9.086;2023-02-01T06:32:31;5.53;;;1.40;;
71937;SDS011;59810;48.800;9.086;2023-02-01T06:34:58;5.80;;;1.80;;
71937;SDS011;59810;48.800;9.086;2023-02-01T06:37:25;6.70;;;1.60;;
71937;SDS011;59810;48.800;9.086;2023-02-01T06:39:52;4.93;;;1.42;;
71937;SDS011;59810;48.800;9.086;2023-02-01T06:42:17;7.95;;;1.75;;
71937;SDS011;59810;48.800;9.086;2023-02-01T06:44:43;6.20;;;1.60;;
71937;SDS011;59810;48.800;9.086;2023-02-01T06:47:08;6.27;;;1.80;;
71937;SDS011;59810;48.800;9.086;2023-02-01T06:49:33;7.53;;;1.90;;
71937;SDS011;59810;48.800;9.086;2023-02-01T06:51:59;7.20;;;2.43;;
71937;SDS011;59810;48.800;9.086;2023-02-01T06:54:25;5.43;;;1.83;;
71937;SDS011;59810;48.800;9.086;2023-02-01T06:56:51;8.57;;;1.75;;
71937;SDS011;59810;48.800;9.086;2023-02-01T06:59:16;7.17;;;1.90;;
71937;SDS011;59810;48.800;9.086;2023-02-01T07:01:42;6.67;;;1.90;;
71937;SDS011;59810;48.800;9.086;2023-02-01T07:04:10;7.22;;;2.00;;
71937;SDS011;59810;48.800;9.086;2023-02-01T07:06:37;5.38;;;1.65;;
71937;SDS011;59810;48.800;9.086;2023-02-01T07:09:05;6.97;;;1.77;;
71937;SDS011;59810;48.800;9.086;2023-02-01T07:11:30;5.35;;;1.83;;
71937;SDS011;59810;48.800;9.086;2023-02-01T07:13:56;7.28;;;1.70;;
71937;SDS011;59810;48.800;9.086;2023-02-01T07:16:22;8.67;;;2.03;;
71937;SDS011;59810;48.800;9.086;2023-02-01T07:18:50;7.03;;;1.55;;
71937;SDS011;59810;48.800;9.086;2023-02-01T07:21:17;7.85;;;1.80;;
71937;SDS011;59810;48.800;9.086;2023-02-01T07:23:42;7.23;;;2.10;;
71937;SDS011;59810;48.800;9.086;2023-02-01T07:26:09;5.60;;;1.80;;
71937;SDS011;59810;48.800;9.086;2023-02-01T07:28:38;5.57;;;1.45;;
71937;SDS011;59810;48.800;9.086;2023-02-01T07:33:30;9.52;;;1.85;;
71937;SDS011;59810;48.800;9.086;2023-02-01T07:35:59;6.00;;;1.73;;
71937;SDS011;59810;48.800;9.086;2023-02-01T07:38:28;7.18;;;1.92;;
71937;SDS011;59810;48.800;9.086;2023-02-01T07:40:56;6.70;;;1.70;;
71937;SDS011;59810;48.800;9.086;2023-02-01T07:43:26;7.07;;;1.77;;
71937;SDS011;59810;48.800;9.086;2023-02-01T07:45:54;9.03;;;2.00;;
71937;SDS011;59810;48.800;9.086;2023-02-01T07:48:20;7.97;;;1.80;;
71937;SDS011;59810;48.800;9.086;2023-02-01T07:50:47;6.32;;;1.83;;
71937;SDS011;59810;48.800;9.086;2023-02-01T07:53:13;8.10;;;1.90;;
71937;SDS011;59810;48.800;9.086;2023-02-01T07:55:38;9.50;;;1.80;;
71937;SDS011;59810;48.800;9.086;2023-02-01T07:58:04;6.33;;;1.70;;
71937;SDS011;59810;48.800;9.086;2023-02-01T08:00:32;8.85;;;1.95;;
71937;SDS011;59810;48.800;9.086;2023-02-01T08:03:19;6.63;;;2.10;;
71937;SDS011;59810;48.800;9.086;2023-02-01T08:05:44;7.00;;;2.20;;
71937;SDS011;59810;48.800;9.086;2023-02-01T08:08:09;9.27;;;1.90;;
71937;SDS011;59810;48.800;9.086;2023-02-01T08:10:35;7.25;;;1.90;;
71937;SDS011;59810;48.800;9.086;2023-02-01T08:13:01;7.97;;;1.93;;
71937;SDS011;59810;48.800;9.086;2023-02-01T08:15:27;5.17;;;1.53;;
71937;SDS011;59810;48.800;9.086;2023-02-01T08:17:53;5.93;;;1.58;;
71937;SDS011;59810;48.800;9.086;2023-02-01T08:20:20;6.28;;;2.05;;
71937;SDS011;59810;48.800;9.086;2023-02-01T08:22:50;6.53;;;1.90;;
71937;SDS011;59810;48.800;9.086;2023-02-01T08:25:16;7.53;;;1.93;;
71937;SDS011;59810;48.800;9.086;2023-02-01T08:27:42;8.80;;;2.00;;
71937;SDS011;59810;48.800;9.086;2023-02-01T08:30:07;9.37;;;1.60;;
71937;SDS011;59810;48.800;9.086;2023-02-01T08:32:34;10.50;;;2.47;;
71937;SDS011;59810;48.800;9.086;2023-02-01T08:35:00;11.40;;;1.90;;
71937;SDS011;59810;48.800;9.086;2023-02-01T08:37:28;6.10;;;1.67;;
71937;SDS011;59810;48.800;9.086;2023-02-01T08:39:54;5.97;;;1.73;;
71937;SDS011;59810;48.800;9.086;2023-02-01T08:42:19;9.30;;;2.07;;
71937;SDS011;59810;48.800;9.086;2023-02-01T08:45:03;5.50;;;1.60;;
71937;SDS011;59810;48.800;9.086;2023-02-01T08:47:30;7.13;;;1.92;;
71937;SDS011;59810;48.800;9.086;2023-02-01T08:49:58;7.63;;;1.63;;
71937;SDS011;59810;48.800;9.086;2023-02-01T08:52:23;7.13;;;1.80;;
71937;SDS011;59810;48.800;9.086;2023-02-01T08:54:48;11.35;;;2.47;;
71937;SDS011;59810;48.800;9.086;2023-02-01T08:57:15;7.67;;;1.90;;
71937;SDS011;59810;48.800;9.086;2023-02-01T08:59:40;11.30;;;2.03;;
71937;SDS011;59810;48.800;9.086;2023-02-01T09:02:05;9.10;;;1.87;;
71937;SDS011;59810;48.800;9.086;2023-02-01T09:04:31;9.37;;;2.00;;
71937;SDS011;59810;48.800;9.086;2023-02-01T09:06:56;8.23;;;1.50;;
71937;SDS011;59810;48.800;9.086;2023-02-01T09:09:22;9.07;;;2.00;;
71937;SDS011;59810;48.800;9.086;2023-02-01T09:11:50;10.20;;;1.80;;
71937;SDS011;59810;48.800;9.086;2023-02-01T09:14:17;14.17;;;1.80;;
71937;SDS011;59810;48.800;9.086;2023-02-01T09:16:43;8.27;;;1.80;;
71937;SDS011;59810;48.800;9.086;2023-02-01T09:19:08;10.17;;;1.80;;
71937;SDS011;59810;48.800;9.086;2023-02-01T09:21:34;7.85;;;1.60;;
71937;SDS011;59810;48.800;9.086;2023-02-01T09:23:59;6.60;;;1.50;;
71937;SDS011;59810;48.800;9.086;2023-02-01T09:26:29;9.13;;;1.65;;
71937;SDS011;59810;48.800;9.086;2023-02-01T09:28:56;11.10;;;1.70;;
71937;SDS011;59810;48.800;9.086;2023-02-01T09:31:21;8.13;;;1.83;;
71937;SDS011;59810;48.800;9.086;2023-02-01T09:33:47;6.07;;;1.50;;
71937;SDS011;59810;48.800;9.086;2023-02-01T09:36:14;9.65;;;1.90;;
71937;SDS011;59810;48.800;9.086;2023-02-01T09:38:39;11.83;;;2.30;;
71937;SDS011;59810;48.800;9.086;2023-02-01T09:41:16;8.70;;;2.03;;
71937;SDS011;59810;48.800;9.086;2023-02-01T09:43:52;7.72;;;1.83;;
71937;SDS011;59810;48.800;9.086;2023-02-01T09:46:31;6.70;;;2.00;;
71937;SDS011;59810;48.800;9.086;2023-02-01T09:49:00;9.70;;;1.80;;
71937;SDS011;59810;48.800;9.086;2023-02-01T09:51:31;10.65;;;1.73;;
71937;SDS011;59810;48.800;9.086;2023-02-01T09:59:49;7.18;;;1.52;;
71937;SDS011;59810;48.800;9.086;2023-02-01T10:02:25;11.63;;;1.80;;
71937;SDS011;59810;48.800;9.086;2023-02-01T10:04:54;14.95;;;2.10;;
71937;SDS011;59810;48.800;9.086;2023-02-01T10:10:10;9.73;;;1.33;;
71937;SDS011;59810;48.800;9.086;2023-02-01T10:12:48;12.18;;;1.73;;
71937;SDS011;59810;48.800;9.086;2023-02-01T10:15:28;8.00;;;1.53;;
71937;SDS011;59810;48.800;9.086;2023-02-01T10:23:38;8.82;;;1.83;;
71937;SDS011;59810;48.800;9.086;2023-02-01T10:28:51;11.30;;;1.77;;
71937;SDS011;59810;48.800;9.086;2023-02-01T10:31:18;10.00;;;1.58;;
71937;SDS011;59810;48.800;9.086;2023-02-01T10:33:51;10.38;;;1.23;;
71937;SDS011;59810;48.800;9.086;2023-02-01T10:36:28;9.50;;;1.70;;
71937;SDS011;59810;48.800;9.086;2023-02-01T10:38:54;6.47;;;1.95;;
71937;SDS011;59810;48.800;9.086;2023-02-01T10:41:22;10.50;;;1.70;;
71937;SDS011;59810;48.800;9.086;2023-02-01T10:43:53;11.40;;;1.92;;
71937;SDS011;59810;48.800;9.086;2023-02-01T10:46:24;8.55;;;1.98;;
71937;SDS011;59810;48.800;9.086;2023-02-01T10:48:55;7.10;;;1.50;;
71937;SDS011;59810;48.800;9.086;2023-02-01T10:51:33;6.60;;;1.42;;
71937;SDS011;59810;48.800;9.086;2023-02-01T10:54:10;8.37;;;1.43;;
71937;SDS011;59810;48.800;9.086;2023-02-01T10:56:41;10.38;;;1.40;;
71937;SDS011;59810;48.800;9.086;2023-02-01T10:59:14;9.82;;;1.80;;
71937;SDS011;59810;48.800;9.086;2023-02-01T11:01:46;8.55;;;1.38;;
71937;SDS011;59810;48.800;9.086;2023-02-01T11:04:14;8.15;;;1.30;;
71937;SDS011;59810;48.800;9.086;2023-02-01T11:06:44;5.60;;;1.27;;
71937;SDS011;59810;48.800;9.086;2023-02-01T11:14:17;10.85;;;1.58;;
71937;SDS011;59810;48.800;9.086;2023-02-01T11:16:54;6.65;;;1.45;;
71937;SDS011;59810;48.800;9.086;2023-02-01T11:19:22;10.33;;;1.43;;
71937;SDS011;59810;48.800;9.086;2023-02-01T11:21:51;6.10;;;1.63;;
71937;SDS011;59810;48.800;9.086;2023-02-01T11:24:54;12.33;;;1.60;;
71937;SDS011;59810;48.800;9.086;2023-02-01T11:27:16;9.43;;;1.88;;
71937;SDS011;59810;48.800;9.086;2023-02-01T11:29:46;10.27;;;1.75;;
71937;SDS011;59810;48.800;9.086;2023-02-01T11:32:16;11.43;;;1.70;;
71937;SDS011;59810;48.800;9.086;2023-02-01T11:34:45;6.32;;;1.13;;
71937;SDS011;59810;48.800;9.086;2023-02-01T11:37:24;7.60;;;1.30;;
71937;SDS011;59810;48.800;9.086;2023-02-01T11:39:56;5.05;;;1.40;;
71937;SDS011;59810;48.800;9.086;2023-02-01T11:42:24;8.20;;;1.73;;
71937;SDS011;59810;48.800;9.086;2023-02-01T11:45:07;11.90;;;1.40;;
71937;SDS011;59810;48.800;9.086;2023-02-01T11:47:46;7.95;;;1.52;;
71937;SDS011;59810;48.800;9.086;2023-02-01T11:50:16;11.77;;;2.90;;
71937;SDS011;59810;48.800;9.086;2023-02-01T11:53:06;6.43;;;1.38;;
71937;SDS011;59810;48.800;9.086;2023-02-01T11:55:50;8.85;;;1.85;;
71937;SDS011;59810;48.800;9.086;2023-02-01T12:03:39;8.60;;;1.45;;
71937;SDS011;59810;48.800;9.086;2023-02-01T12:06:32;8.90;;;1.98;;
71937;SDS011;59810;48.800;9.086;2023-02-01T12:12:14;7.60;;;1.00;;
71937;SDS011;59810;48.800;9.086;2023-02-01T12:28:16;10.53;;;1.40;;
71937;SDS011;59810;48.800;9.086;2023-02-01T12:39:02;7.20;;;1.25;;
71937;SDS011;59810;48.800;9.086;2023-02-01T12:48:21;10.77;;;2.22;;
71937;SDS011;59810;48.800;9.086;2023-02-01T12:50:31;13.32;;;1.30;;
71937;SDS011;59810;48.800;9.086;2023-02-01T12:53:07;8.23;;;1.40;;
71937;SDS011;59810;48.800;9.086;2023-02-01T12:55:47;8.60;;;1.50;;
71937;SDS011;59810;48.800;9.086;2023-02-01T13:00:50;6.15;;;1.40;;
71937;SDS011;59810;48.800;9.086;2023-02-01T13:03:27;10.05;;;2.05;;
71937;SDS011;59810;48.800;9.086;2023-02-01T13:06:02;9.45;;;1.40;;
71937;SDS011;59810;48.800;9.086;2023-02-01T13:08:43;7.93;;;1.40;;
71937;SDS011;59810;48.800;9.086;2023-02-01T13:16:28;6.47;;;1.30;;
71937;SDS011;59810;48.800;9.086;2023-02-01T13:21:56;10.77;;;1.17;;
71937;SDS011;59810;48.800;9.086;2023-02-01T13:24:33;4.93;;;1.50;;
71937;SDS011;59810;48.800;9.086;2023-02-01T13:27:11;10.02;;;1.30;;
71937;SDS011;59810;48.800;9.086;2023-02-01T13:29:40;6.63;;;1.30;;
71937;SDS011;59810;48.800;9.086;2023-02-01T13:32:24;7.72;;;1.75;;
71937;SDS011;59810;48.800;9.086;2023-02-01T13:43:07;10.93;;;1.45;;
71937;SDS011;59810;48.800;9.086;2023-02-01T13:45:42;8.80;;;1.40;;
71937;SDS011;59810;48.800;9.086;2023-02-01T13:48:17;7.47;;;1.10;;
71937;SDS011;59810;48.800;9.086;2023-02-01T13:51:03;7.13;;;1.45;;
71937;SDS011;59810;48.800;9.086;2023-02-01T13:53:30;7.87;;;1.60;;
71937;SDS011;59810;48.800;9.086;2023-02-01T13:58:30;12.10;;;2.93;;
71937;SDS011;59810;48.800;9.086;2023-02-01T14:04:01;6.00;;;1.45;;
71937;SDS011;59810;48.800;9.086;2023-02-01T14:09:17;9.53;;;1.90;;
71937;SDS011;59810;48.800;9.086;2023-02-01T14:11:57;11.77;;;1.67;;
71937;SDS011;59810;48.800;9.086;2023-02-01T14:21:48;9.67;;;1.70;;
71937;SDS011;59810;48.800;9.086;2023-02-01T14:24:25;10.32;;;1.77;;
71937;SDS011;59810;48.800;9.086;2023-02-01T14:26:52;9.88;;;1.98;;
71937;SDS011;59810;48.800;9.086;2023-02-01T14:29:32;8.17;;;1.70;;
71937;SDS011;59810;48.800;9.086;2023-02-01T14:32:03;9.00;;;1.42;;
71937;SDS011;59810;48.800;9.086;2023-02-01T14:35:05;9.45;;;1.80;;
71937;SDS011;59810;48.800;9.086;2023-02-01T14:44:56;8.90;;;2.08;;
71937;SDS011;59810;48.800;9.086;2023-02-01T14:47:44;11.80;;;2.70;;
71937;SDS011;59810;48.800;9.086;2023-02-01T14:58:30;9.70;;;2.67;;
71937;SDS011;59810;48.800;9.086;2023-02-01T15:00:58;7.23;;;1.70;;
71937;SDS011;59810;48.800;9.086;2023-02-01T15:03:34;11.80;;;3.78;;
71937;SDS011;59810;48.800;9.086;2023-02-01T15:06:32;9.70;;;1.73;;
71937;SDS011;59810;48.800;9.086;2023-02-01T15:14:22;9.67;;;1.70;;
71937;SDS011;59810;48.800;9.086;2023-02-01T15:16:48;11.65;;;1.60;;
71937;SDS011;59810;48.800;9.086;2023-02-01T15:19:21;11.40;;;2.00;;
71937;SDS011;59810;48.800;9.086;2023-02-01T15:21:49;13.50;;;1.60;;
71937;SDS011;59810;48.800;9.086;2023-02-01T15:24:24;7.78;;;1.67;;
71937;SDS011;59810;48.800;9.086;2023-02-01T15:26:53;8.73;;;2.30;;
71937;SDS011;59810;48.800;9.086;2023-02-01T15:29:23;13.52;;;3.83;;
71937;SDS011;59810;48.800;9.086;2023-02-01T15:31:52;7.97;;;1.73;;
71937;SDS011;59810;48.800;9.086;2023-02-01T15:34:20;7.17;;;1.50;;
71937;SDS011;59810;48.800;9.086;2023-02-01T15:36:46;10.93;;;1.67;;
71937;SDS011;59810;48.800;9.086;2023-02-01T15:41:45;5.85;;;1.27;;
71937;SDS011;59810;48.800;9.086;2023-02-01T15:47:06;5.43;;;1.20;;
71937;SDS011;59810;48.800;9.086;2023-02-01T15:49:40;6.75;;;1.60;;
71937;SDS011;59810;48.800;9.086;2023-02-01T15:52:15;8.77;;;1.33;;
71937;SDS011;59810;48.800;9.086;2023-02-01T15:54:47;8.63;;;1.45;;
71937;SDS011;59810;48.800;9.086;2023-02-01T15:57:21;9.83;;;1.40;;
71937;SDS011;59810;48.800;9.086;2023-02-01T15:59:55;5.88;;;1.27;;
71937;SDS011;59810;48.800;9.086;2023-02-01T16:02:34;10.10;;;1.95;;
71937;SDS011;59810;48.800;9.086;2023-02-01T16:05:05;7.07;;;1.33;;
71937;SDS011;59810;48.800;9.086;2023-02-01T16:07:57;7.90;;;1.23;;
71937;SDS011;59810;48.800;9.086;2023-02-01T16:10:30;7.17;;;1.57;;
71937;SDS011;59810;48.800;9.086;2023-02-01T16:12:56;7.90;;;1.40;;
71937;SDS011;59810;48.800;9.086;2023-02-01T16:15:25;8.90;;;1.75;;
71937;SDS011;59810;48.800;9.086;2023-02-01T16:17:54;9.80;;;1.50;;
71937;SDS011;59810;48.800;9.086;2023-02-01T16:20:19;9.85;;;2.30;;
71937;SDS011;59810;48.800;9.086;2023-02-01T16:22:45;8.93;;;2.10;;
71937;SDS011;59810;48.800;9.086;2023-02-01T16:25:10;7.37;;;1.70;;
71937;SDS011;59810;48.800;9.086;2023-02-01T16:27:35;9.90;;;1.50;;
71937;SDS011;59810;48.800;9.086;2023-02-01T16:30:01;10.80;;;2.20;;
71937;SDS011;59810;48.800;9.086;2023-02-01T16:32:26;11.25;;;2.85;;
71937;SDS011;59810;48.800;9.086;2023-02-01T16:34:52;9.37;;;1.50;;
71937;SDS011;59810;48.800;9.086;2023-02-01T16:37:23;10.88;;;1.60;;
71937;SDS011;59810;48.800;9.086;2023-02-01T16:39:50;7.00;;;1.40;;
71937;SDS011;59810;48.800;9.086;2023-02-01T16:42:15;10.23;;;1.37;;
71937;SDS011;59810;48.800;9.086;2023-02-01T16:44:41;6.05;;;1.15;;
71937;SDS011;59810;48.800;9.086;2023-02-01T16:47:19;12.52;;;1.58;;
71937;SDS011;59810;48.800;9.086;2023-02-01T16:49:46;12.93;;;2.97;;
71937;SDS011;59810;48.800;9.086;2023-02-01T16:52:17;7.28;;;1.50;;
71937;SDS011;59810;48.800;9.086;2023-02-01T16:54:45;9.15;;;2.00;;
71937;SDS011;59810;48.800;9.086;2023-02-01T16:57:12;8.48;;;1.42;;
71937;SDS011;59810;48.800;9.086;2023-02-01T16:59:44;9.07;;;2.30;;
71937;SDS011;59810;48.800;9.086;2023-02-01T17:02:12;6.60;;;0.82;;
71937;SDS011;59810;48.800;9.086;2023-02-01T17:04:40;10.70;;;1.90;;
71937;SDS011;59810;48.800;9.086;2023-02-01T17:07:06;10.65;;;1.63;;
71937;SDS011;59810;48.800;9.086;2023-02-01T17:09:37;10.57;;;1.58;;
71937;SDS011;59810;48.800;9.086;2023-02-01T17:12:03;8.30;;;1.63;;
71937;SDS011;59810;48.800;9.086;2023-02-01T17:14:33;9.57;;;1.50;;
71937;SDS011;59810;48.800;9.086;2023-02-01T17:17:04;9.13;;;1.73;;
71937;SDS011;59810;48.800;9.086;2023-02-01T17:19:29;5.63;;;1.50;;
71937;SDS011;59810;48.800;9.086;2023-02-01T17:21:57;10.57;;;2.17;;
71937;SDS011;59810;48.800;9.086;2023-02-01T17:24:26;7.88;;;1.55;;
71937;SDS011;59810;48.800;9.086;2023-02-01T17:26:53;7.65;;;1.25;;
71937;SDS011;59810;48.800;9.086;2023-02-01T17:29:19;6.00;;;1.40;;
71937;SDS011;59810;48.800;9.086;2023-02-01T17:31:51;7.67;;;2.03;;
71937;SDS011;59810;48.800;9.086;2023-02-01T17:34:19;8.80;;;1.90;;
71937;SDS011;59810;48.800;9.086;2023-02-01T17:36:45;10.90;;;2.47;;
71937;SDS011;59810;48.800;9.086;2023-02-01T17:39:12;5.45;;;1.58;;